sensor_id;sensor_type;location;lat;lon;timestamp;pressure;altitude;pressure_sealevel;temperature;humidity
61537;BME280;48695;53.480;-6.300;2024-03-23T00:55:36;100956.91;;;6.68;62.26
61537;BME280;48695;53.480;-6.300;2024-03-23T00:58:01;100955.19;;;6.67;62.62
61537;BME280;48695;53.480;-6.300;2024-03-23T01:00:26;100969.03;;;6.66;61.81
61537;BME280;48695;53.480;-6.300;2024-03-23T01:02:52;100954.31;;;6.66;62.22
61537;BME280;48695;53.480;-6.300;2024-03-23T01:05:18;100966.44;;;6.64;62.39
61537;BME280;48695;53.480;-6.300;2024-03-23T01:07:44;100966.44;;;6.64;62.49
61537;BME280;48695;53.480;-6.300;2024-03-23T01:10:09;100953.44;;;6.63;63.05
61537;BME280;48695;53.480;-6.300;2024-03-23T01:12:35;100955.19;;;6.58;62.67
61537;BME280;48695;53.480;-6.300;2024-03-23T01:15:00;100950.88;;;6.61;62.78
61537;BME280;48695;53.480;-6.300;2024-03-23T01:17:25;100941.34;;;6.59;62.55
61537;BME280;48695;53.480;-6.300;2024-03-23T01:19:51;100943.09;;;6.60;62.55
61537;BME280;48695;53.480;-6.300;2024-03-23T01:22:16;100959.50;;;6.59;62.12
61537;BME280;48695;53.480;-6.300;2024-03-23T01:24:42;100944.81;;;6.58;62.73
61537;BME280;48695;53.480;-6.300;2024-03-23T01:27:08;100945.69;;;6.57;62.23
61537;BME280;48695;53.480;-6.300;2024-03-23T01:29:34;100942.22;;;6.56;62.66
61537;BME280;48695;53.480;-6.300;2024-03-23T01:31:59;100931.88;;;6.55;63.00
61537;BME280;48695;53.480;-6.300;2024-03-23T01:34:24;100910.25;;;6.42;63.45
61537;BME280;48695;53.480;-6.300;2024-03-23T01:36:50;100918.91;;;6.55;63.88
61537;BME280;48695;53.480;-6.300;2024-03-23T01:39:16;100898.13;;;6.55;63.33
61537;BME280;48695;53.480;-6.300;2024-03-23T01:41:41;100922.34;;;6.57;63.98
61537;BME280;48695;53.480;-6.300;2024-03-23T01:44:08;100920.63;;;6.56;63.76
61537;BME280;48695;53.480;-6.300;2024-03-23T01:46:43;100924.06;;;6.58;62.74
61537;BME280;48695;53.480;-6.300;2024-03-23T01:49:09;100885.19;;;6.42;63.65
61537;BME280;48695;53.480;-6.300;2024-03-23T01:51:35;100907.63;;;6.53;63.04
61537;BME280;48695;53.480;-6.300;2024-03-23T01:54:04;100913.69;;;6.52;63.27
61537;BME280;48695;53.480;-6.300;2024-03-23T01:56:34;100917.16;;;6.50;63.74
61537;BME280;48695;53.480;-6.300;2024-03-23T01:59:03;100908.50;;;6.48;63.07
61537;BME280;48695;53.480;-6.300;2024-03-23T02:01:28;100910.25;;;6.46;62.95
61537;BME280;48695;53.480;-6.300;2024-03-23T02:03:54;100906.81;;;6.44;63.65
61537;BME280;48695;53.480;-6.300;2024-03-23T02:06:19;100897.28;;;6.42;63.53
61537;BME280;48695;53.480;-6.300;2024-03-23T02:08:45;100912.84;;;6.42;63.91
61537;BME280;48695;53.480;-6.300;2024-03-23T02:11:10;100894.75;;;6.34;63.82
61537;BME280;48695;53.480;-6.300;2024-03-23T02:13:35;100906.81;;;6.40;63.63
61537;BME280;48695;53.480;-6.300;2024-03-23T02:16:01;100911.16;;;6.39;64.02
61537;BME280;48695;53.480;-6.300;2024-03-23T02:18:27;100902.50;;;6.39;63.77
61537;BME280;48695;53.480;-6.300;2024-03-23T02:20:52;100889.53;;;6.28;63.80
61537;BME280;48695;53.480;-6.300;2024-03-23T02:23:18;100900.78;;;6.36;63.71
61537;BME280;48695;53.480;-6.300;2024-03-23T02:25:44;100902.50;;;6.33;63.65
61537;BME280;48695;53.480;-6.300;2024-03-23T02:28:10;100901.66;;;6.35;63.60
61537;BME280;48695;53.480;-6.300;2024-03-23T02:30:36;100897.31;;;6.33;64.24
61537;BME280;48695;53.480;-6.300;2024-03-23T02:33:01;100898.16;;;6.33;63.62
61537;BME280;48695;53.480;-6.300;2024-03-23T02:35:27;100898.16;;;6.33;63.89
61537;BME280;48695;53.480;-6.300;2024-03-23T02:37:52;100889.56;;;6.34;64.15
61537;BME280;48695;53.480;-6.300;2024-03-23T02:40:19;100898.19;;;6.36;64.51
61537;BME280;48695;53.480;-6.300;2024-03-23T02:42:45;100896.44;;;6.38;64.40
61537;BME280;48695;53.480;-6.300;2024-03-23T02:45:10;100899.88;;;6.42;64.05
61537;BME280;48695;53.480;-6.300;2024-03-23T02:47:36;100895.59;;;6.44;64.13
61537;BME280;48695;53.480;-6.300;2024-03-23T02:50:01;100899.00;;;6.47;64.32
61537;BME280;48695;53.480;-6.300;2024-03-23T02:52:27;100891.22;;;6.50;64.35
61537;BME280;48695;53.480;-6.300;2024-03-23T02:54:52;100886.03;;;6.52;64.64
61537;BME280;48695;53.480;-6.300;2024-03-23T02:57:18;100886.88;;;6.56;63.61
61537;BME280;48695;53.480;-6.300;2024-03-23T02:59:43;100881.69;;;6.57;64.66
61537;BME280;48695;53.480;-6.300;2024-03-23T03:02:08;100877.34;;;6.61;64.48
61537;BME280;48695;53.480;-6.300;2024-03-23T03:04:34;100880.78;;;6.63;63.83
61537;BME280;48695;53.480;-6.300;2024-03-23T03:07:00;100887.69;;;6.64;64.51
61537;BME280;48695;53.480;-6.300;2024-03-23T03:09:25;100878.22;;;6.61;64.55
61537;BME280;48695;53.480;-6.300;2024-03-23T03:11:50;100871.28;;;6.66;64.81
61537;BME280;48695;53.480;-6.300;2024-03-23T03:14:16;100863.47;;;6.68;64.44
61537;BME280;48695;53.480;-6.300;2024-03-23T03:16:41;100878.16;;;6.69;64.76
61537;BME280;48695;53.480;-6.300;2024-03-23T03:19:07;100853.97;;;6.67;64.44
61537;BME280;48695;53.480;-6.300;2024-03-23T03:21:32;100849.66;;;6.66;65.00
61537;BME280;48695;53.480;-6.300;2024-03-23T03:23:58;100848.78;;;6.64;64.58
61537;BME280;48695;53.480;-6.300;2024-03-23T03:26:23;100842.75;;;6.62;64.92
61537;BME280;48695;53.480;-6.300;2024-03-23T03:28:50;100840.16;;;6.60;64.46
61537;BME280;48695;53.480;-6.300;2024-03-23T03:31:16;100835.84;;;6.58;64.66
61537;BME280;48695;53.480;-6.300;2024-03-23T03:33:42;100839.31;;;6.57;64.85
61537;BME280;48695;53.480;-6.300;2024-03-23T03:36:07;100827.22;;;6.56;64.86
61537;BME280;48695;53.480;-6.300;2024-03-23T03:38:33;100822.03;;;6.56;64.63
61537;BME280;48695;53.480;-6.300;2024-03-23T03:41:01;100824.63;;;6.56;65.05
61537;BME280;48695;53.480;-6.300;2024-03-23T03:43:26;100822.03;;;6.56;64.96
61537;BME280;48695;53.480;-6.300;2024-03-23T03:45:53;100815.13;;;6.55;64.89
61537;BME280;48695;53.480;-6.300;2024-03-23T03:48:18;100811.66;;;6.56;65.18
61537;BME280;48695;53.480;-6.300;2024-03-23T03:50:43;100796.09;;;6.53;65.15
61537;BME280;48695;53.480;-6.300;2024-03-23T03:53:09;100803.00;;;6.57;64.92
61537;BME280;48695;53.480;-6.300;2024-03-23T03:55:34;100787.41;;;6.57;64.80
61537;BME280;48695;53.480;-6.300;2024-03-23T03:58:00;100783.94;;;6.58;64.53
61537;BME280;48695;53.480;-6.300;2024-03-23T04:00:25;100797.81;;;6.57;65.21
61537;BME280;48695;53.480;-6.300;2024-03-23T04:02:51;100796.09;;;6.56;65.17
61537;BME280;48695;53.480;-6.300;2024-03-23T04:05:16;100798.63;;;6.59;65.40
61537;BME280;48695;53.480;-6.300;2024-03-23T04:07:42;100788.28;;;6.60;64.67
61537;BME280;48695;53.480;-6.300;2024-03-23T04:10:08;100778.75;;;6.61;64.73
61537;BME280;48695;53.480;-6.300;2024-03-23T04:12:34;100777.94;;;6.51;64.82
61537;BME280;48695;53.480;-6.300;2024-03-23T04:15:00;100759.75;;;6.53;65.07
61537;BME280;48695;53.480;-6.300;2024-03-23T04:17:26;100780.47;;;6.62;65.16
61537;BME280;48695;53.480;-6.300;2024-03-23T04:19:56;100775.28;;;6.62;64.66
61537;BME280;48695;53.480;-6.300;2024-03-23T04:22:22;100770.09;;;6.62;65.14
61537;BME280;48695;53.480;-6.300;2024-03-23T04:24:49;100761.47;;;6.60;64.82
61537;BME280;48695;53.480;-6.300;2024-03-23T04:27:14;100764.06;;;6.61;64.87
61537;BME280;48695;53.480;-6.300;2024-03-23T04:29:40;100742.44;;;6.61;64.69
61537;BME280;48695;53.480;-6.300;2024-03-23T04:32:05;100753.69;;;6.58;64.84
61537;BME280;48695;53.480;-6.300;2024-03-23T04:34:31;100743.31;;;6.60;64.06
61537;BME280;48695;53.480;-6.300;2024-03-23T04:36:58;100733.78;;;6.57;64.81
61537;BME280;48695;53.480;-6.300;2024-03-23T04:39:23;100739.88;;;6.56;64.66
61537;BME280;48695;53.480;-6.300;2024-03-23T04:41:49;100733.84;;;6.46;64.57
61537;BME280;48695;53.480;-6.300;2024-03-23T04:44:15;100740.72;;;6.57;64.63
61537;BME280;48695;53.480;-6.300;2024-03-23T04:46:40;100740.72;;;6.57;65.15
61537;BME280;48695;53.480;-6.300;2024-03-23T04:49:06;100738.97;;;6.57;65.04
61537;BME280;48695;53.480;-6.300;2024-03-23T04:51:35;100733.78;;;6.62;64.89
61537;BME280;48695;53.480;-6.300;2024-03-23T04:54:06;100729.47;;;6.59;65.16
61537;BME280;48695;53.480;-6.300;2024-03-23T04:56:32;100720.78;;;6.62;64.56
61537;BME280;48695;53.480;-6.300;2024-03-23T04:58:58;100726.81;;;6.64;64.59
61537;BME280;48695;53.480;-6.300;2024-03-23T05:01:27;100708.69;;;6.62;65.22
61537;BME280;48695;53.480;-6.300;2024-03-23T05:03:52;100713.84;;;6.64;64.69
61537;BME280;48695;53.480;-6.300;2024-03-23T05:06:18;100705.19;;;6.68;64.73
61537;BME280;48695;53.480;-6.300;2024-03-23T05:08:44;100712.09;;;6.69;65.13
61537;BME280;48695;53.480;-6.300;2024-03-23T05:11:11;100709.50;;;6.72;65.03
61537;BME280;48695;53.480;-6.300;2024-03-23T05:13:36;100709.50;;;6.72;64.98
61537;BME280;48695;53.480;-6.300;2024-03-23T05:16:01;100703.41;;;6.73;64.92
61537;BME280;48695;53.480;-6.300;2024-03-23T05:18:27;100700.81;;;6.76;65.32
61537;BME280;48695;53.480;-6.300;2024-03-23T05:20:57;100704.25;;;6.80;65.04
61537;BME280;48695;53.480;-6.300;2024-03-23T05:23:23;100674.03;;;6.68;64.81
61537;BME280;48695;53.480;-6.300;2024-03-23T05:25:48;100693.00;;;6.81;65.15
61537;BME280;48695;53.480;-6.300;2024-03-23T05:28:14;100696.44;;;6.81;65.71
61537;BME280;48695;53.480;-6.300;2024-03-23T05:30:39;100685.16;;;6.84;65.80
61537;BME280;48695;53.480;-6.300;2024-03-23T05:33:05;100683.44;;;6.84;65.71
61537;BME280;48695;53.480;-6.300;2024-03-23T05:35:31;100665.34;;;6.73;64.91
61537;BME280;48695;53.480;-6.300;2024-03-23T05:37:57;100681.72;;;6.83;65.14
61537;BME280;48695;53.480;-6.300;2024-03-23T05:40:24;100676.53;;;6.83;64.98
61537;BME280;48695;53.480;-6.300;2024-03-23T05:42:49;100678.25;;;6.84;64.91
61537;BME280;48695;53.480;-6.300;2024-03-23T05:45:18;100690.38;;;6.82;65.35
61537;BME280;48695;53.480;-6.300;2024-03-23T05:47:44;100683.44;;;6.83;64.76
61537;BME280;48695;53.480;-6.300;2024-03-23T05:50:09;100685.19;;;6.82;64.95
61537;BME280;48695;53.480;-6.300;2024-03-23T05:52:38;100689.53;;;6.82;65.24
61537;BME280;48695;53.480;-6.300;2024-03-23T05:55:04;100682.59;;;6.82;65.41
61537;BME280;48695;53.480;-6.300;2024-03-23T05:57:29;100694.69;;;6.83;65.19
61537;BME280;48695;53.480;-6.300;2024-03-23T05:59:55;100681.72;;;6.83;65.58
61537;BME280;48695;53.480;-6.300;2024-03-23T06:02:20;100688.63;;;6.84;65.70
61537;BME280;48695;53.480;-6.300;2024-03-23T06:04:46;100693.81;;;6.84;65.66
61537;BME280;48695;53.480;-6.300;2024-03-23T06:07:11;100702.47;;;6.86;66.00
61537;BME280;48695;53.480;-6.300;2024-03-23T06:09:39;100674.78;;;6.84;66.07
61537;BME280;48695;53.480;-6.300;2024-03-23T06:12:05;100689.53;;;6.82;66.52
61537;BME280;48695;53.480;-6.300;2024-03-23T06:14:31;100693.84;;;6.81;66.06
61537;BME280;48695;53.480;-6.300;2024-03-23T06:16:56;100681.75;;;6.79;66.82
61537;BME280;48695;53.480;-6.300;2024-03-23T06:19:21;100687.81;;;6.78;66.14
61537;BME280;48695;53.480;-6.300;2024-03-23T06:21:47;100682.66;;;6.76;66.32
61537;BME280;48695;53.480;-6.300;2024-03-23T06:24:12;100682.66;;;6.76;66.51
61537;BME280;48695;53.480;-6.300;2024-03-23T06:26:38;100685.25;;;6.74;66.70
61537;BME280;48695;53.480;-6.300;2024-03-23T06:29:03;100678.34;;;6.75;66.24
61537;BME280;48695;53.480;-6.300;2024-03-23T06:31:30;100638.78;;;6.42;66.65
61537;BME280;48695;53.480;-6.300;2024-03-23T06:33:56;100681.81;;;6.72;66.52
61537;BME280;48695;53.480;-6.300;2024-03-23T06:36:21;100687.84;;;6.74;66.23
61537;BME280;48695;53.480;-6.300;2024-03-23T06:38:47;100676.59;;;6.74;66.25
61537;BME280;48695;53.480;-6.300;2024-03-23T06:41:12;100681.78;;;6.74;66.63
61537;BME280;48695;53.480;-6.300;2024-03-23T06:43:37;100674.91;;;6.70;67.09
61537;BME280;48695;53.480;-6.300;2024-03-23T06:46:03;100674.91;;;6.68;67.40
61537;BME280;48695;53.480;-6.300;2024-03-23T06:48:31;100674.94;;;6.64;67.34
61537;BME280;48695;53.480;-6.300;2024-03-23T06:50:57;100674.94;;;6.67;67.23
61537;BME280;48695;53.480;-6.300;2024-03-23T06:53:23;100680.13;;;6.64;67.76
61537;BME280;48695;53.480;-6.300;2024-03-23T06:55:53;100689.66;;;6.65;68.37
61537;BME280;48695;53.480;-6.300;2024-03-23T06:58:23;100668.06;;;6.58;68.14
61537;BME280;48695;53.480;-6.300;2024-03-23T07:00:48;100673.25;;;6.60;68.90
61537;BME280;48695;53.480;-6.300;2024-03-23T07:03:14;100672.34;;;6.64;67.81
61537;BME280;48695;53.480;-6.300;2024-03-23T07:05:40;100667.19;;;6.61;69.04
61537;BME280;48695;53.480;-6.300;2024-03-23T07:08:06;100666.31;;;6.59;68.77
61537;BME280;48695;53.480;-6.300;2024-03-23T07:10:31;100661.13;;;6.62;68.70
61537;BME280;48695;53.480;-6.300;2024-03-23T07:12:57;100664.59;;;6.61;68.72
61537;BME280;48695;53.480;-6.300;2024-03-23T07:15:22;100657.69;;;6.60;68.23
61537;BME280;48695;53.480;-6.300;2024-03-23T07:17:47;100654.22;;;6.58;69.18
61537;BME280;48695;53.480;-6.300;2024-03-23T07:20:13;100664.63;;;6.56;68.30
61537;BME280;48695;53.480;-6.300;2024-03-23T07:22:39;100656.88;;;6.55;69.57
61537;BME280;48695;53.480;-6.300;2024-03-23T07:25:05;100656.84;;;6.53;68.93
61537;BME280;48695;53.480;-6.300;2024-03-23T07:27:31;100660.31;;;6.52;69.15
61537;BME280;48695;53.480;-6.300;2024-03-23T07:29:57;100659.47;;;6.52;69.55
61537;BME280;48695;53.480;-6.300;2024-03-23T07:32:22;100652.53;;;6.54;69.14
61537;BME280;48695;53.480;-6.300;2024-03-23T07:34:48;100650.78;;;6.56;69.15
61537;BME280;48695;53.480;-6.300;2024-03-23T07:37:13;100645.56;;;6.59;69.81
61537;BME280;48695;53.480;-6.300;2024-03-23T07:39:39;100627.50;;;6.46;69.80
61537;BME280;48695;53.480;-6.300;2024-03-23T07:42:05;100662.81;;;6.66;69.78
61537;BME280;48695;53.480;-6.300;2024-03-23T07:44:30;100654.22;;;6.61;69.44
61537;BME280;48695;53.480;-6.300;2024-03-23T07:46:56;100654.13;;;6.74;69.95
61537;BME280;48695;53.480;-6.300;2024-03-23T07:49:21;100662.72;;;6.78;69.49
61537;BME280;48695;53.480;-6.300;2024-03-23T07:51:47;100657.53;;;6.81;69.72
61537;BME280;48695;53.480;-6.300;2024-03-23T07:54:12;100659.22;;;6.85;69.31
61537;BME280;48695;53.480;-6.300;2024-03-23T07:56:37;100669.56;;;6.88;69.85
61537;BME280;48695;53.480;-6.300;2024-03-23T07:59:03;100669.56;;;6.91;69.41
61537;BME280;48695;53.480;-6.300;2024-03-23T08:01:28;100660.03;;;6.89;69.61
61537;BME280;48695;53.480;-6.300;2024-03-23T08:03:54;100666.06;;;6.95;69.80
61537;BME280;48695;53.480;-6.300;2024-03-23T08:06:20;100649.72;;;6.83;69.78
61537;BME280;48695;53.480;-6.300;2024-03-23T08:08:48;100675.56;;;6.96;69.52
61537;BME280;48695;53.480;-6.300;2024-03-23T08:11:14;100685.06;;;6.97;68.98
61537;BME280;48695;53.480;-6.300;2024-03-23T08:13:41;100689.38;;;6.98;70.01
61537;BME280;48695;53.480;-6.300;2024-03-23T08:16:07;100698.91;;;6.99;69.68
61537;BME280;48695;53.480;-6.300;2024-03-23T08:18:34;100693.75;;;6.96;70.24
61537;BME280;48695;53.480;-6.300;2024-03-23T08:21:00;100697.16;;;6.98;69.87
61537;BME280;48695;53.480;-6.300;2024-03-23T08:23:30;100698.91;;;6.99;70.08
61537;BME280;48695;53.480;-6.300;2024-03-23T08:26:04;100678.22;;;6.90;70.11
61537;BME280;48695;53.480;-6.300;2024-03-23T08:28:29;100685.09;;;6.94;69.01
61537;BME280;48695;53.480;-6.300;2024-03-23T08:30:56;100671.25;;;6.95;69.11
61537;BME280;48695;53.480;-6.300;2024-03-23T08:33:22;100660.03;;;6.92;70.17
61537;BME280;48695;53.480;-6.300;2024-03-23T08:35:56;100655.72;;;6.89;69.59
61537;BME280;48695;53.480;-6.300;2024-03-23T08:38:23;100664.38;;;6.88;70.11
61537;BME280;48695;53.480;-6.300;2024-03-23T08:40:59;100661.75;;;6.93;70.26
61537;BME280;48695;53.480;-6.300;2024-03-23T08:43:25;100658.28;;;6.92;70.40
61537;BME280;48695;53.480;-6.300;2024-03-23T08:45:51;100650.50;;;6.92;69.78
61537;BME280;48695;53.480;-6.300;2024-03-23T08:48:17;100655.69;;;6.95;70.64
61537;BME280;48695;53.480;-6.300;2024-03-23T08:50:43;100666.06;;;6.95;70.41
61537;BME280;48695;53.480;-6.300;2024-03-23T08:53:09;100673.81;;;6.98;69.92
61537;BME280;48695;53.480;-6.300;2024-03-23T08:55:34;100664.31;;;6.97;70.48
61537;BME280;48695;53.480;-6.300;2024-03-23T08:58:00;100655.63;;;6.98;70.66
61537;BME280;48695;53.480;-6.300;2024-03-23T09:00:26;100652.19;;;6.99;70.30
61537;BME280;48695;53.480;-6.300;2024-03-23T09:02:51;100636.69;;;6.90;70.49
61537;BME280;48695;53.480;-6.300;2024-03-23T09:05:18;100629.78;;;6.86;71.21
61537;BME280;48695;53.480;-6.300;2024-03-23T09:07:43;100643.47;;;7.05;70.54
61537;BME280;48695;53.480;-6.300;2024-03-23T09:10:08;100654.66;;;7.15;70.70
61537;BME280;48695;53.480;-6.300;2024-03-23T09:12:34;100655.34;;;7.31;71.27
61537;BME280;48695;53.480;-6.300;2024-03-23T09:14:59;100646.50;;;7.48;71.45
61537;BME280;48695;53.480;-6.300;2024-03-23T09:17:25;100649.72;;;7.69;71.24
61537;BME280;48695;53.480;-6.300;2024-03-23T09:19:50;100655.59;;;7.86;71.60
61537;BME280;48695;53.480;-6.300;2024-03-23T09:22:16;100659.66;;;8.07;71.80
61537;BME280;48695;53.480;-6.300;2024-03-23T09:24:41;100637.72;;;8.26;71.73
61537;BME280;48695;53.480;-6.300;2024-03-23T09:27:06;100640.69;;;8.61;71.65
61537;BME280;48695;53.480;-6.300;2024-03-23T09:29:32;100640.28;;;8.87;71.31
61537;BME280;48695;53.480;-6.300;2024-03-23T09:31:57;100618.25;;;9.07;71.42
61537;BME280;48695;53.480;-6.300;2024-03-23T09:34:23;100651.38;;;9.46;71.37
61537;BME280;48695;53.480;-6.300;2024-03-23T09:36:51;100644.81;;;9.71;71.18
61537;BME280;48695;53.480;-6.300;2024-03-23T09:39:17;100634.69;;;9.98;70.94
61537;BME280;48695;53.480;-6.300;2024-03-23T09:41:42;100621.31;;;10.14;70.21
61537;BME280;48695;53.480;-6.300;2024-03-23T09:44:08;100641.53;;;10.45;70.25
61537;BME280;48695;53.480;-6.300;2024-03-23T09:46:33;100641.06;;;10.63;69.31
61537;BME280;48695;53.480;-6.300;2024-03-23T09:49:01;100616.44;;;10.74;68.47
61537;BME280;48695;53.480;-6.300;2024-03-23T09:51:30;100602.94;;;10.56;67.98
61537;BME280;48695;53.480;-6.300;2024-03-23T09:53:55;100639.34;;;10.62;67.32
61537;BME280;48695;53.480;-6.300;2024-03-23T09:56:21;100643.03;;;10.55;67.67
61537;BME280;48695;53.480;-6.300;2024-03-23T09:58:46;100645.72;;;10.51;68.04
61537;BME280;48695;53.480;-6.300;2024-03-23T10:01:12;100647.28;;;10.59;68.34
61537;BME280;48695;53.480;-6.300;2024-03-23T10:03:47;100630.56;;;10.67;68.09
61537;BME280;48695;53.480;-6.300;2024-03-23T10:06:12;100634.72;;;10.75;68.01
61537;BME280;48695;53.480;-6.300;2024-03-23T10:08:37;100633.59;;;10.84;68.14
61537;BME280;48695;53.480;-6.300;2024-03-23T10:11:29;100654.88;;;11.04;68.28
61537;BME280;48695;53.480;-6.300;2024-03-23T10:13:55;100657.47;;;11.06;67.89
61537;BME280;48695;53.480;-6.300;2024-03-23T10:16:23;100658.97;;;11.14;67.40
61537;BME280;48695;53.480;-6.300;2024-03-23T10:18:49;100669.47;;;11.13;66.99
61537;BME280;48695;53.480;-6.300;2024-03-23T10:21:15;100672.19;;;11.08;67.22
61537;BME280;48695;53.480;-6.300;2024-03-23T10:23:42;100660.19;;;11.00;67.07
61537;BME280;48695;53.480;-6.300;2024-03-23T10:26:25;100659.56;;;10.91;66.84
61537;BME280;48695;53.480;-6.300;2024-03-23T10:31:20;100660.19;;;10.65;67.22
61537;BME280;48695;53.480;-6.300;2024-03-23T10:33:49;100641.88;;;10.67;67.85
61537;BME280;48695;53.480;-6.300;2024-03-23T10:36:15;100627.25;;;10.58;68.54
61537;BME280;48695;53.480;-6.300;2024-03-23T10:38:42;100635.34;;;10.85;68.53
61537;BME280;48695;53.480;-6.300;2024-03-23T10:41:09;100633.94;;;11.06;68.33
61537;BME280;48695;53.480;-6.300;2024-03-23T10:43:36;100654.22;;;11.29;68.44
61537;BME280;48695;53.480;-6.300;2024-03-23T10:46:02;100637.84;;;11.55;68.51
61537;BME280;48695;53.480;-6.300;2024-03-23T10:48:28;100645.84;;;11.81;67.71
61537;BME280;48695;53.480;-6.300;2024-03-23T10:50:53;100642.75;;;11.98;67.25
61537;BME280;48695;53.480;-6.300;2024-03-23T10:53:21;100654.53;;;12.13;66.06
61537;BME280;48695;53.480;-6.300;2024-03-23T10:55:50;100655.25;;;12.18;66.79
61537;BME280;48695;53.480;-6.300;2024-03-23T10:58:19;100648.78;;;12.30;65.87
61537;BME280;48695;53.480;-6.300;2024-03-23T11:00:47;100637.31;;;12.34;65.85
61537;BME280;48695;53.480;-6.300;2024-03-23T11:05:57;100644.38;;;12.32;65.04
61537;BME280;48695;53.480;-6.300;2024-03-23T11:08:35;100646.16;;;12.30;64.77
61537;BME280;48695;53.480;-6.300;2024-03-23T11:11:16;100640.31;;;12.22;64.47
61537;BME280;48695;53.480;-6.300;2024-03-23T11:13:42;100650.34;;;12.07;65.55
61537;BME280;48695;53.480;-6.300;2024-03-23T11:18:43;100633.81;;;12.05;66.04
61537;BME280;48695;53.480;-6.300;2024-03-23T11:21:09;100629.97;;;12.17;65.97
61537;BME280;48695;53.480;-6.300;2024-03-23T11:23:34;100641.56;;;12.38;65.24
61537;BME280;48695;53.480;-6.300;2024-03-23T11:26:00;100622.59;;;12.58;65.77
61537;BME280;48695;53.480;-6.300;2024-03-23T11:28:26;100631.50;;;12.79;65.48
61537;BME280;48695;53.480;-6.300;2024-03-23T11:30:51;100614.16;;;13.01;65.99
61537;BME280;48695;53.480;-6.300;2024-03-23T11:33:17;100616.50;;;13.35;65.42
61537;BME280;48695;53.480;-6.300;2024-03-23T11:35:42;100611.91;;;13.65;64.71
61537;BME280;48695;53.480;-6.300;2024-03-23T11:38:13;100614.47;;;13.90;63.76
61537;BME280;48695;53.480;-6.300;2024-03-23T11:40:46;100619.50;;;14.18;64.07
61537;BME280;48695;53.480;-6.300;2024-03-23T11:43:13;100604.75;;;14.38;62.95
61537;BME280;48695;53.480;-6.300;2024-03-23T11:45:47;100599.28;;;14.66;63.58
61537;BME280;48695;53.480;-6.300;2024-03-23T11:48:17;100599.09;;;14.91;63.34
61537;BME280;48695;53.480;-6.300;2024-03-23T11:50:44;100607.47;;;15.21;60.84
61537;BME280;48695;53.480;-6.300;2024-03-23T11:53:18;100608.66;;;15.53;60.88
61537;BME280;48695;53.480;-6.300;2024-03-23T11:58:10;100613.22;;;15.89;60.53
61537;BME280;48695;53.480;-6.300;2024-03-23T12:00:36;100609.66;;;16.08;58.96
61537;BME280;48695;53.480;-6.300;2024-03-23T12:03:02;100610.44;;;16.29;58.41
61537;BME280;48695;53.480;-6.300;2024-03-23T12:05:28;100617.69;;;16.43;57.77
61537;BME280;48695;53.480;-6.300;2024-03-23T12:07:55;100585.88;;;16.46;58.13
61537;BME280;48695;53.480;-6.300;2024-03-23T12:10:20;100598.09;;;16.66;59.37
61537;BME280;48695;53.480;-6.300;2024-03-23T12:12:46;100599.94;;;16.83;58.37
61537;BME280;48695;53.480;-6.300;2024-03-23T12:15:11;100594.25;;;17.08;58.14
61537;BME280;48695;53.480;-6.300;2024-03-23T12:17:38;100590.34;;;17.32;57.19
61537;BME280;48695;53.480;-6.300;2024-03-23T12:20:04;100593.47;;;17.56;56.08
61537;BME280;48695;53.480;-6.300;2024-03-23T12:22:30;100609.81;;;17.80;56.06
61537;BME280;48695;53.480;-6.300;2024-03-23T12:24:56;100594.69;;;18.00;56.34
61537;BME280;48695;53.480;-6.300;2024-03-23T12:27:21;100599.88;;;18.17;56.51
61537;BME280;48695;53.480;-6.300;2024-03-23T12:29:47;100605.41;;;18.28;55.60
61537;BME280;48695;53.480;-6.300;2024-03-23T12:32:13;100595.16;;;18.38;55.18
61537;BME280;48695;53.480;-6.300;2024-03-23T12:34:39;100601.13;;;18.41;55.13
61537;BME280;48695;53.480;-6.300;2024-03-23T12:37:04;100608.03;;;18.44;54.27
61537;BME280;48695;53.480;-6.300;2024-03-23T12:39:31;100594.66;;;18.47;53.29
61537;BME280;48695;53.480;-6.300;2024-03-23T12:41:57;100593.44;;;18.53;53.63
61537;BME280;48695;53.480;-6.300;2024-03-23T12:44:22;100586.56;;;18.64;54.34
61537;BME280;48695;53.480;-6.300;2024-03-23T12:46:47;100588.63;;;18.75;53.24
61537;BME280;48695;53.480;-6.300;2024-03-23T12:49:13;100581.09;;;18.83;52.36
61537;BME280;48695;53.480;-6.300;2024-03-23T12:51:38;100579.50;;;18.81;53.29
61537;BME280;48695;53.480;-6.300;2024-03-23T12:54:04;100593.69;;;18.94;52.68
61537;BME280;48695;53.480;-6.300;2024-03-23T12:56:30;100590.09;;;18.95;51.09
61537;BME280;48695;53.480;-6.300;2024-03-23T12:58:56;100583.97;;;18.95;52.75
61537;BME280;48695;53.480;-6.300;2024-03-23T13:01:25;100596.75;;;19.02;55.00
61537;BME280;48695;53.480;-6.300;2024-03-23T13:03:51;100579.03;;;18.88;53.05
61537;BME280;48695;53.480;-6.300;2024-03-23T13:06:18;100612.44;;;19.05;51.75
61537;BME280;48695;53.480;-6.300;2024-03-23T13:08:46;100632.75;;;19.05;52.43
61537;BME280;48695;53.480;-6.300;2024-03-23T13:11:12;100640.16;;;18.84;52.40
61537;BME280;48695;53.480;-6.300;2024-03-23T13:13:39;100608.00;;;18.60;54.22
61537;BME280;48695;53.480;-6.300;2024-03-23T13:16:05;100614.63;;;18.37;56.73
61537;BME280;48695;53.480;-6.300;2024-03-23T13:18:32;100607.28;;;18.26;55.93
61537;BME280;48695;53.480;-6.300;2024-03-23T13:20:58;100591.06;;;18.32;54.34
61537;BME280;48695;53.480;-6.300;2024-03-23T13:23:23;100600.94;;;18.45;54.91
61537;BME280;48695;53.480;-6.300;2024-03-23T13:25:53;100579.34;;;18.68;52.79
61537;BME280;48695;53.480;-6.300;2024-03-23T13:28:19;100579.22;;;18.85;54.09
61537;BME280;48695;53.480;-6.300;2024-03-23T13:30:54;100563.22;;;19.17;53.32
61537;BME280;48695;53.480;-6.300;2024-03-23T13:33:20;100583.38;;;19.34;50.93
61537;BME280;48695;53.480;-6.300;2024-03-23T13:35:52;100578.28;;;19.59;50.93
61537;BME280;48695;53.480;-6.300;2024-03-23T13:38:17;100575.94;;;19.69;49.16
61537;BME280;48695;53.480;-6.300;2024-03-23T13:41:09;100563.78;;;19.93;51.67
61537;BME280;48695;53.480;-6.300;2024-03-23T13:43:37;100571.50;;;19.96;47.46
61537;BME280;48695;53.480;-6.300;2024-03-23T13:46:03;100572.56;;;20.08;47.22
61537;BME280;48695;53.480;-6.300;2024-03-23T13:48:28;100580.66;;;20.19;46.88